createdAt,value
2018-04-27T00:01:35.308Z,8.57
2018-04-27T00:04:04.208Z,9.43
2018-04-27T00:06:34.021Z,8.80
2018-04-27T00:09:03.130Z,10.30
2018-04-27T00:11:32.896Z,9.63
2018-04-27T00:14:01.813Z,9.27
2018-04-27T00:16:30.715Z,9.80
2018-04-27T00:19:00.357Z,10.17
2018-04-27T00:21:29.407Z,9.53
2018-04-27T00:23:59.060Z,9.20
2018-04-27T00:26:28.060Z,10.33
2018-04-27T00:28:56.998Z,9.43
2018-04-27T00:31:25.900Z,9.37
2018-04-27T00:33:55.572Z,9.40
2018-04-27T00:36:24.493Z,8.70
2018-04-27T00:38:53.528Z,8.40
2018-04-27T00:41:22.423Z,8.57
2018-04-27T00:43:51.348Z,9.00
2018-04-27T00:46:20.507Z,8.97
2018-04-27T00:48:49.524Z,7.83
2018-04-27T00:51:18.427Z,9.77
2018-04-27T00:53:47.504Z,10.10
2018-04-27T00:56:16.652Z,9.33
2018-04-27T00:58:45.611Z,9.77
2018-04-27T01:01:14.511Z,9.60
2018-04-27T01:03:43.527Z,8.93
2018-04-27T01:06:13.199Z,9.77
2018-04-27T01:08:42.095Z,8.97
2018-04-27T01:11:11.144Z,9.00
2018-04-27T01:13:40.228Z,9.67
2018-04-27T01:16:09.265Z,9.33
2018-04-27T01:18:38.337Z,9.00
2018-04-27T01:21:07.220Z,9.20
2018-04-27T01:23:36.088Z,8.53
2018-04-27T01:26:05.799Z,9.50
2018-04-27T01:28:35.464Z,9.67
2018-04-27T01:31:04.415Z,9.23
2018-04-27T01:33:33.278Z,7.87
2018-04-27T01:36:03.031Z,8.47
2018-04-27T01:38:31.932Z,8.27
2018-04-27T01:41:00.856Z,8.57
2018-04-27T01:43:29.876Z,7.97
2018-04-27T01:45:58.847Z,5.90
2018-04-27T01:48:27.756Z,4.93
2018-04-27T01:50:58.353Z,4.50
2018-04-27T01:53:27.236Z,4.70
2018-04-27T01:55:56.156Z,5.00
2018-04-27T01:58:25.212Z,4.50
2018-04-27T02:00:54.118Z,3.47
2018-04-27T02:03:23.001Z,3.90
2018-04-27T02:05:51.890Z,3.27
2018-04-27T02:08:21.565Z,4.60
2018-04-27T02:10:50.492Z,4.47
2018-04-27T02:13:19.560Z,3.70
2018-04-27T02:15:49.160Z,3.67
2018-04-27T02:18:18.061Z,4.50
2018-04-27T02:20:47.209Z,5.20
2018-04-27T02:23:16.112Z,4.33
2018-04-27T02:25:44.991Z,5.10
2018-04-27T02:28:14.663Z,6.00
2018-04-27T02:30:43.543Z,5.40
2018-04-27T02:33:12.581Z,4.70
2018-04-27T02:35:41.492Z,5.00
2018-04-27T02:38:11.128Z,4.30
2018-04-27T02:40:40.143Z,4.93
2018-04-27T02:43:09.064Z,4.17
2018-04-27T02:45:39.428Z,3.20
2018-04-27T02:48:08.687Z,2.53
2018-04-27T02:50:37.836Z,2.80
2018-04-27T02:53:06.824Z,2.80
2018-04-27T02:55:35.681Z,2.17
2018-04-27T02:58:04.624Z,2.57
2018-04-27T03:00:33.491Z,2.67
2018-04-27T03:03:02.380Z,3.17
2018-04-27T03:05:31.294Z,3.20
2018-04-27T03:08:00.328Z,3.10
2018-04-27T03:10:29.227Z,3.10
2018-04-27T03:12:58.897Z,3.73
2018-04-27T03:15:27.792Z,3.27
2018-04-27T03:17:56.803Z,3.10
2018-04-27T03:20:26.093Z,12.97
2018-04-27T03:22:55.181Z,5.17
2018-04-27T03:25:24.136Z,4.43
2018-04-27T03:27:53.267Z,6.50
2018-04-27T03:30:22.131Z,5.50
2018-04-27T03:32:50.995Z,4.47
2018-04-27T03:35:19.907Z,3.97
2018-04-27T03:37:48.981Z,3.27
2018-04-27T03:40:18.689Z,3.70
2018-04-27T03:42:48.351Z,3.10
2018-04-27T03:45:17.254Z,2.70
2018-04-27T03:47:46.213Z,2.70
2018-04-27T03:50:15.203Z,2.87
2018-04-27T03:52:44.240Z,2.83
2018-04-27T03:55:13.126Z,2.80
2018-04-27T03:57:42.108Z,2.53
2018-04-27T04:00:28.919Z,2.33
2018-04-27T04:03:15.336Z,2.73
2018-04-27T04:05:44.233Z,2.37
2018-04-27T04:08:13.360Z,2.07
2018-04-27T04:10:42.256Z,2.60
2018-04-27T04:13:11.476Z,2.90
2018-04-27T04:15:40.353Z,2.70
2018-04-27T04:18:09.256Z,2.10
2018-04-27T04:20:38.151Z,2.10
2018-04-27T04:23:07.051Z,2.27
2018-04-27T04:25:35.947Z,1.93
2018-04-27T04:28:05.000Z,2.30
2018-04-27T04:30:33.896Z,2.50
2018-04-27T04:33:02.838Z,2.30
2018-04-27T04:35:31.745Z,2.17
2018-04-27T04:38:01.543Z,2.37
2018-04-27T04:40:30.421Z,2.37
2018-04-27T04:42:59.515Z,2.93
2018-04-27T04:45:28.390Z,2.93
2018-04-27T04:47:57.379Z,2.40
2018-04-27T04:50:26.637Z,2.87
2018-04-27T04:52:55.544Z,2.73
2018-04-27T04:55:24.599Z,2.77
2018-04-27T04:57:53.780Z,2.90
2018-04-27T05:00:22.687Z,2.90
2018-04-27T05:02:51.779Z,26.87
2018-04-27T05:05:21.571Z,23.37
2018-04-27T05:07:50.483Z,18.57
2018-04-27T05:10:19.758Z,9.43
2018-04-27T05:12:48.707Z,7.03
2018-04-27T05:15:17.604Z,4.50
2018-04-27T05:17:46.525Z,4.50
2018-04-27T05:20:14.658Z,25.80
2018-04-27T05:22:43.530Z,5.47
2018-04-27T05:25:13.207Z,4.47
2018-04-27T05:27:42.368Z,5.30
2018-04-27T05:30:11.456Z,4.10
2018-04-27T05:32:40.423Z,3.93
2018-04-27T05:35:10.420Z,4.20
2018-04-27T05:37:40.150Z,4.10
2018-04-27T05:40:10.047Z,4.63
2018-04-27T05:42:38.953Z,3.73
2018-04-27T05:45:08.840Z,5.00
2018-04-27T05:47:37.810Z,6.10
2018-04-27T05:50:06.752Z,5.37
2018-04-27T05:52:36.623Z,7.03
2018-04-27T05:55:05.624Z,6.27
2018-04-27T05:57:34.551Z,6.70
2018-04-27T06:00:03.472Z,7.83
2018-04-27T06:02:32.368Z,7.73
2018-04-27T06:05:01.329Z,8.83
2018-04-27T06:07:30.884Z,9.00
2018-04-27T06:10:00.059Z,8.47
2018-04-27T06:12:28.943Z,7.87
2018-04-27T06:14:58.009Z,9.03
2018-04-27T06:17:27.724Z,7.03
2018-04-27T06:19:57.391Z,8.13
2018-04-27T06:22:26.471Z,7.87
2018-04-27T06:24:55.583Z,7.20
2018-04-27T06:27:24.515Z,11.23
2018-04-27T06:29:54.459Z,15.97
2018-04-27T06:32:23.347Z,13.10
2018-04-27T06:34:52.289Z,10.83
2018-04-27T06:37:21.194Z,13.20
2018-04-27T06:39:50.877Z,13.83
2018-04-27T06:42:19.864Z,13.50
2018-04-27T06:44:48.879Z,10.37
2018-04-27T06:47:17.877Z,8.87
2018-04-27T06:49:46.768Z,9.47
2018-04-27T06:52:15.668Z,13.37
2018-04-27T06:54:45.521Z,10.97
2018-04-27T06:57:14.503Z,11.47
2018-04-27T06:59:43.464Z,12.17
2018-04-27T07:02:13.272Z,12.30
2018-04-27T07:04:43.011Z,12.87
2018-04-27T07:07:11.985Z,12.17
2018-04-27T07:09:41.040Z,11.03
2018-04-27T07:12:10.002Z,15.27
2018-04-27T07:14:38.957Z,13.77
2018-04-27T07:17:08.623Z,13.00
2018-04-27T07:19:37.540Z,11.27
2018-04-27T07:22:06.506Z,11.60
2018-04-27T07:24:35.477Z,9.30
2018-04-27T07:27:04.444Z,12.90
2018-04-27T07:29:34.234Z,10.93
2018-04-27T07:32:03.140Z,11.20
2018-04-27T07:34:32.920Z,9.60
2018-04-27T07:37:01.924Z,11.00
2018-04-27T07:39:31.007Z,11.57
2018-04-27T07:42:00.107Z,13.30
2018-04-27T07:44:29.127Z,10.40
2018-04-27T07:46:58.837Z,9.93
2018-04-27T07:49:28.588Z,8.93
2018-04-27T07:51:57.539Z,8.05
2018-04-27T07:54:27.524Z,7.37
2018-04-27T07:56:56.801Z,6.00
2018-04-27T07:59:25.748Z,6.25
2018-04-27T08:01:54.680Z,7.35
2018-04-27T08:04:23.705Z,7.00
2018-04-27T08:06:52.675Z,5.50
2018-04-27T08:09:21.611Z,8.52
2018-04-27T08:11:51.349Z,6.97
2018-04-27T08:14:20.428Z,6.00
2018-04-27T08:16:49.400Z,6.20
2018-04-27T08:19:18.685Z,9.48
2018-04-27T08:21:47.672Z,8.30
2018-04-27T08:24:16.763Z,8.88
2018-04-27T08:26:45.733Z,6.93
2018-04-27T08:29:14.697Z,7.72
2018-04-27T08:31:44.719Z,8.10
2018-04-27T08:34:13.727Z,10.13
2018-04-27T08:36:43.192Z,7.93
2018-04-27T08:39:13.040Z,7.10
2018-04-27T08:41:41.933Z,6.53
2018-04-27T08:44:11.028Z,6.78
2018-04-27T08:46:40.028Z,7.80
2018-04-27T08:49:08.931Z,12.20
2018-04-27T08:51:37.868Z,7.50
2018-04-27T08:54:07.821Z,9.02
2018-04-27T08:56:36.852Z,10.50
2018-04-27T08:59:05.879Z,9.93
2018-04-27T09:01:35.591Z,12.07
2018-04-27T09:04:04.641Z,7.35
2018-04-27T09:06:33.672Z,6.75
2018-04-27T09:09:02.876Z,8.38
2018-04-27T09:11:31.827Z,9.80
2018-04-27T09:14:00.743Z,9.75
2018-04-27T09:16:29.816Z,8.05
2018-04-27T09:18:58.708Z,10.70
2018-04-27T09:21:27.603Z,7.55
2018-04-27T09:23:56.524Z,7.93
2018-04-27T09:26:26.201Z,7.72
2018-04-27T09:28:55.152Z,7.37
2018-04-27T09:31:24.067Z,9.45
2018-04-27T09:33:52.980Z,10.50
2018-04-27T09:36:22.841Z,10.43
2018-04-27T09:38:51.769Z,10.75
2018-04-27T09:41:20.872Z,8.98
2018-04-27T09:43:49.932Z,9.30
2018-04-27T09:46:18.891Z,9.73
2018-04-27T09:48:48.631Z,8.63
2018-04-27T09:51:17.670Z,8.43
2018-04-27T09:53:46.611Z,8.57
2018-04-27T09:56:15.494Z,9.55
2018-04-27T09:58:44.459Z,10.95
2018-04-27T10:01:14.158Z,10.70
2018-04-27T10:03:43.057Z,9.25
2018-04-27T10:06:12.892Z,10.13
2018-04-27T10:08:41.956Z,10.55
2018-04-27T10:11:11.001Z,8.43
2018-04-27T10:13:39.912Z,7.30
2018-04-27T10:16:08.928Z,7.72
2018-04-27T10:18:37.863Z,8.38
2018-04-27T10:21:06.804Z,7.10
2018-04-27T10:23:35.720Z,9.02
2018-04-27T10:26:04.715Z,7.70
2018-04-27T10:28:33.609Z,7.72
2018-04-27T10:31:03.288Z,7.68
2018-04-27T10:33:32.252Z,7.70
2018-04-27T10:36:01.158Z,7.50
2018-04-27T10:38:30.398Z,6.35
2018-04-27T10:41:00.100Z,6.43
2018-04-27T10:43:29.013Z,8.18
2018-04-27T10:45:58.227Z,8.05
2018-04-27T10:48:27.189Z,8.40
2018-04-27T10:50:56.159Z,7.05
2018-04-27T10:53:26.076Z,7.30
2018-04-27T10:55:55.006Z,6.45
2018-04-27T10:58:24.050Z,6.75
2018-04-27T11:00:53.075Z,5.93
2018-04-27T11:03:22.087Z,3.80
2018-04-27T11:05:51.033Z,3.40
2018-04-27T11:08:20.632Z,3.03
2018-04-27T11:10:49.560Z,3.07
2018-04-27T11:13:19.313Z,4.00
2018-04-27T11:15:48.472Z,2.60
2018-04-27T11:18:18.226Z,3.03
2018-04-27T11:20:47.194Z,2.90
2018-04-27T11:23:16.129Z,2.97
2018-04-27T11:25:45.099Z,2.97
2018-04-27T11:28:14.120Z,2.25
2018-04-27T11:30:42.999Z,2.12
2018-04-27T11:33:11.923Z,2.03
2018-04-27T11:35:40.930Z,2.42
2018-04-27T11:38:10.634Z,2.90
2018-04-27T11:40:40.482Z,3.13
2018-04-27T11:43:09.374Z,2.77
2018-04-27T11:45:38.521Z,2.10
2018-04-27T11:48:07.477Z,2.00
2018-04-27T11:50:36.428Z,2.47
2018-04-27T11:53:05.413Z,2.20
2018-04-27T11:55:35.501Z,2.67
2018-04-27T11:58:04.633Z,2.63
2018-04-27T12:00:34.611Z,2.73
2018-04-27T12:03:03.542Z,2.87
2018-04-27T12:05:33.264Z,2.73
2018-04-27T12:08:02.330Z,2.30
2018-04-27T12:10:32.178Z,2.13
2018-04-27T12:13:01.165Z,2.03
2018-04-27T12:15:30.898Z,2.10
2018-04-27T12:17:59.837Z,2.20
2018-04-27T12:20:28.935Z,2.37
2018-04-27T12:22:57.877Z,2.60
2018-04-27T12:25:26.774Z,2.30
2018-04-27T12:27:55.704Z,2.17
2018-04-27T12:30:24.795Z,2.00
2018-04-27T12:32:53.662Z,2.43
2018-04-27T12:35:22.566Z,2.20
2018-04-27T12:37:51.557Z,2.07
2018-04-27T12:40:20.632Z,4.50
2018-04-27T12:42:49.569Z,2.73
2018-04-27T12:45:19.308Z,3.27
2018-04-27T12:47:48.255Z,2.80
2018-04-27T12:50:17.315Z,2.40
2018-04-27T12:52:46.265Z,1.90
2018-04-27T12:55:15.955Z,2.30
2018-04-27T12:57:45.687Z,1.77
2018-04-27T13:00:14.581Z,2.00
2018-04-27T13:02:43.462Z,2.00
2018-04-27T13:05:13.189Z,2.67
2018-04-27T13:07:42.915Z,2.00
2018-04-27T13:10:11.855Z,2.10
2018-04-27T13:12:40.854Z,2.47
2018-04-27T13:15:09.819Z,1.77
2018-04-27T13:17:38.771Z,1.53
2018-04-27T13:20:07.673Z,2.30
2018-04-27T13:22:36.940Z,1.40
2018-04-27T13:25:06.596Z,1.43
2018-04-27T13:27:35.548Z,1.80
2018-04-27T13:30:04.569Z,1.50
2018-04-27T13:32:33.454Z,1.40
2018-04-27T13:35:02.326Z,1.70
2018-04-27T13:37:31.265Z,1.50
2018-04-27T13:40:00.196Z,1.50
2018-04-27T13:42:29.254Z,1.40
2018-04-27T13:44:58.156Z,2.10
2018-04-27T13:47:27.140Z,1.50
2018-04-27T13:49:56.073Z,1.70
2018-04-27T13:52:25.013Z,1.40
2018-04-27T13:54:53.995Z,2.47
2018-04-27T13:57:23.042Z,2.13
2018-04-27T13:59:51.962Z,1.83
2018-04-27T14:02:20.912Z,2.10
2018-04-27T14:04:49.865Z,1.40
2018-04-27T14:07:18.854Z,1.93
2018-04-27T14:09:47.964Z,2.30
2018-04-27T14:12:16.928Z,2.03
2018-04-27T14:14:45.907Z,17.07
2018-04-27T14:17:14.881Z,25.50
2018-04-27T14:19:44.676Z,9.63
2018-04-27T14:22:13.855Z,18.27
2018-04-27T14:24:42.777Z,20.37
2018-04-27T14:27:12.705Z,25.63
2018-04-27T14:29:41.626Z,9.70
2018-04-27T14:32:10.629Z,7.90
2018-04-27T14:34:39.496Z,6.10
2018-04-27T14:37:08.483Z,13.27
2018-04-27T14:39:37.356Z,14.77
2018-04-27T14:42:07.228Z,5.27
2018-04-27T14:44:36.945Z,3.27
2018-04-27T14:47:05.956Z,8.70
2018-04-27T14:49:34.900Z,3.33
2018-04-27T14:52:03.913Z,20.37
2018-04-27T14:54:33.012Z,12.73
2018-04-27T14:57:01.961Z,7.83
2018-04-27T14:59:31.009Z,17.97
2018-04-27T15:01:59.948Z,11.97
2018-04-27T15:04:28.811Z,6.77
2018-04-27T15:06:58.496Z,5.73
2018-04-27T15:09:27.580Z,6.30
2018-04-27T15:11:56.756Z,3.27
2018-04-27T15:14:25.778Z,1.90
2018-04-27T15:16:54.902Z,2.23
2018-04-27T15:19:24.573Z,1.67
2018-04-27T15:21:53.648Z,2.00
2018-04-27T15:24:22.610Z,2.10
2018-04-27T15:26:52.297Z,2.10
2018-04-27T15:29:21.239Z,2.00
2018-04-27T15:31:50.168Z,1.80
2018-04-27T15:34:19.220Z,2.30
2018-04-27T15:36:48.242Z,2.03
2018-04-27T15:39:17.572Z,1.70
2018-04-27T15:41:46.751Z,2.27
2018-04-27T15:44:15.864Z,2.00
2018-04-27T15:46:44.818Z,2.30
2018-04-27T15:49:13.771Z,2.17
2018-04-27T15:51:42.737Z,2.70
2018-04-27T15:54:12.011Z,2.43
2018-04-27T15:56:40.928Z,1.53
2018-04-27T15:59:09.825Z,2.10
2018-04-27T16:01:39.657Z,1.80
2018-04-27T16:04:08.683Z,2.10
2018-04-27T16:06:37.676Z,1.63
2018-04-27T16:09:06.575Z,1.80
2018-04-27T16:11:35.593Z,2.00
2018-04-27T16:14:04.629Z,1.70
2018-04-27T16:16:33.682Z,2.10
2018-04-27T16:19:03.420Z,2.20
2018-04-27T16:21:33.225Z,2.27
2018-04-27T16:24:03.042Z,2.97
2018-04-27T16:26:32.776Z,1.70
2018-04-27T16:29:01.811Z,1.70
2018-04-27T16:31:30.819Z,1.80
2018-04-27T16:34:01.513Z,2.00
2018-04-27T16:36:30.592Z,2.07
2018-04-27T16:38:59.631Z,3.60
2018-04-27T16:41:28.633Z,2.30
2018-04-27T16:43:57.552Z,1.90
2018-04-27T16:46:27.404Z,2.27
2018-04-27T16:48:56.582Z,2.70
2018-04-27T16:51:25.507Z,14.47
2018-04-27T16:53:54.425Z,3.40
2018-04-27T16:56:24.099Z,3.33
2018-04-27T16:58:53.277Z,5.20
2018-04-27T17:01:22.478Z,6.67
2018-04-27T17:03:51.721Z,3.50
2018-04-27T17:06:20.808Z,2.07
2018-04-27T17:08:49.908Z,2.00
2018-04-27T17:11:18.903Z,2.47
2018-04-27T17:13:47.847Z,2.73
2018-04-27T17:16:16.788Z,1.93
2018-04-27T17:18:46.107Z,7.33
2018-04-27T17:21:15.482Z,9.20
2018-04-27T17:23:44.522Z,5.50
2018-04-27T17:26:13.533Z,2.13
2018-04-27T17:28:42.662Z,2.10
2018-04-27T17:31:11.715Z,2.30
2018-04-27T17:33:40.978Z,3.40
2018-04-27T17:36:10.768Z,4.23
2018-04-27T17:38:39.751Z,4.00
2018-04-27T17:41:08.741Z,5.03
2018-04-27T17:43:37.735Z,3.27
2018-04-27T17:46:06.801Z,2.73
2018-04-27T17:48:35.886Z,13.20
2018-04-27T17:51:04.851Z,7.10
2018-04-27T17:53:34.593Z,2.20
2018-04-27T17:56:03.579Z,2.00
2018-04-27T17:58:32.536Z,1.90
2018-04-27T18:01:01.642Z,2.50
2018-04-27T18:03:31.460Z,1.90
2018-04-27T18:06:01.146Z,2.20
2018-04-27T18:08:30.084Z,2.07
2018-04-27T18:10:59.022Z,1.93
2018-04-27T18:13:28.112Z,2.27
2018-04-27T18:15:57.105Z,1.70
2018-04-27T18:18:26.085Z,2.20
2018-04-27T18:20:55.086Z,2.20
2018-04-27T18:23:24.049Z,5.00
2018-04-27T18:25:53.005Z,14.23
2018-04-27T18:28:22.802Z,17.10
2018-04-27T18:30:51.725Z,2.70
2018-04-27T18:33:20.745Z,7.50
2018-04-27T18:35:49.947Z,9.43
2018-04-27T18:38:19.140Z,3.53
2018-04-27T18:40:48.078Z,2.40
2018-04-27T18:43:17.061Z,2.93
2018-04-27T18:45:46.205Z,4.17
2018-04-27T18:48:15.865Z,4.63
2018-04-27T18:50:46.598Z,5.47
2018-04-27T18:53:15.899Z,5.10
2018-04-27T18:55:45.159Z,5.70
2018-04-27T18:58:14.116Z,5.77
2018-04-27T19:00:43.389Z,4.80
2018-04-27T19:03:12.451Z,4.13
2018-04-27T19:05:41.427Z,5.53
2018-04-27T19:08:10.425Z,4.77
2018-04-27T19:10:40.484Z,4.20
2018-04-27T19:13:12.243Z,4.10
2018-04-27T19:15:41.203Z,5.83
2018-04-27T19:18:10.179Z,6.47
2018-04-27T19:20:41.374Z,6.07
2018-04-27T19:23:14.620Z,4.20
2018-04-27T19:25:49.180Z,4.57
2018-04-27T19:28:21.588Z,3.73
2018-04-27T19:30:51.384Z,3.93
2018-04-27T19:33:21.116Z,3.50
2018-04-27T19:35:50.845Z,4.33
2018-04-27T19:38:19.875Z,4.20
2018-04-27T19:40:48.975Z,15.30
2018-04-27T19:43:18.676Z,9.57
2018-04-27T19:45:47.637Z,9.10
2018-04-27T19:48:16.596Z,8.87
2018-04-27T19:50:45.571Z,16.07
2018-04-27T19:53:14.551Z,5.70
2018-04-27T19:55:43.645Z,5.13
2018-04-27T19:58:12.843Z,4.40
2018-04-27T20:00:43.396Z,7.80
2018-04-27T20:03:12.675Z,4.40
2018-04-27T20:05:44.315Z,4.10
2018-04-27T20:08:13.336Z,4.03
2018-04-27T20:10:45.398Z,3.53
2018-04-27T20:13:16.011Z,5.00
2018-04-27T20:15:48.636Z,6.00
2018-04-27T20:18:32.096Z,6.00
2018-04-27T20:21:01.201Z,6.80
2018-04-27T20:23:35.854Z,6.87
2018-04-27T20:26:05.703Z,5.17
2018-04-27T20:28:36.487Z,4.80
2018-04-27T20:31:05.504Z,4.03
2018-04-27T20:33:34.647Z,4.83
2018-04-27T20:36:07.195Z,6.17
2018-04-27T20:38:36.934Z,5.13
2018-04-27T20:41:10.676Z,5.67
2018-04-27T20:43:40.626Z,4.97
2018-04-27T20:46:09.737Z,4.43
2018-04-27T20:48:38.766Z,5.20
2018-04-27T20:51:09.579Z,6.80
2018-04-27T20:56:47.449Z,6.87
2018-04-27T20:59:18.335Z,7.10
2018-04-27T21:01:47.306Z,7.43
2018-04-27T21:04:17.140Z,6.10
2018-04-27T21:06:46.140Z,7.80
2018-04-27T21:09:15.122Z,8.20
2018-04-27T21:11:46.483Z,11.73
2018-04-27T21:14:15.496Z,14.30
2018-04-27T21:16:44.559Z,11.77
2018-04-27T21:19:13.523Z,7.10
2018-04-27T21:21:42.525Z,7.40
2018-04-27T21:24:12.286Z,7.37
2018-04-27T21:26:42.223Z,7.30
2018-04-27T21:29:17.855Z,6.83
2018-04-27T21:31:46.852Z,8.37
2018-04-27T21:34:15.849Z,6.70
2018-04-27T21:36:48.270Z,8.13
2018-04-27T21:39:33.819Z,6.80
2018-04-27T21:42:02.776Z,6.50
2018-04-27T21:44:37.059Z,6.20
2018-04-27T21:50:17.124Z,6.07
2018-04-27T21:52:49.536Z,11.20
2018-04-27T21:55:18.496Z,8.63
2018-04-27T21:58:00.128Z,7.30
2018-04-27T22:00:31.544Z,6.50
2018-04-27T22:03:10.187Z,5.90
2018-04-27T22:08:51.185Z,5.13
2018-04-27T22:11:24.917Z,6.60
2018-04-27T22:13:54.038Z,6.80
2018-04-27T22:16:40.524Z,7.93
2018-04-27T22:19:20.144Z,9.53
2018-04-27T22:21:50.913Z,7.43
2018-04-27T22:24:23.485Z,7.47
2018-04-27T22:27:00.894Z,10.30
2018-04-27T22:29:30.828Z,18.10
2018-04-27T22:32:11.262Z,20.77
2018-04-27T22:34:45.941Z,9.23
2018-04-27T22:37:14.900Z,6.37
2018-04-27T22:39:56.722Z,15.37
2018-04-27T22:42:25.693Z,9.17
2018-04-27T22:45:12.631Z,12.30
2018-04-27T22:47:45.092Z,11.20
2018-04-27T22:50:24.003Z,6.80
2018-04-27T22:52:56.871Z,7.10
2018-04-27T22:55:25.843Z,7.03
2018-04-27T22:58:13.185Z,8.07
2018-04-27T23:03:39.131Z,7.97
2018-04-27T23:06:08.917Z,5.87
2018-04-27T23:08:50.594Z,6.20
2018-04-27T23:11:25.203Z,6.13
2018-04-27T23:17:12.706Z,6.00
2018-04-27T23:19:58.304Z,5.83
2018-04-27T23:22:42.199Z,6.33
2018-04-27T23:25:29.904Z,7.07
2018-04-27T23:27:59.005Z,6.13
2018-04-27T23:30:30.963Z,6.53
2018-04-27T23:32:59.952Z,5.90
2018-04-27T23:35:32.861Z,6.60
2018-04-27T23:38:03.640Z,6.83
2018-04-27T23:40:32.836Z,7.03
2018-04-27T23:43:01.863Z,7.37
2018-04-27T23:45:30.910Z,6.73
2018-04-27T23:48:00.629Z,6.70
2018-04-27T23:50:29.592Z,6.60
2018-04-27T23:52:59.296Z,6.00
2018-04-27T23:55:29.003Z,6.80
2018-04-27T23:57:58.932Z,6.93
